createdAt,value
2018-07-01T00:00:16.355Z,7.00
2018-07-01T00:02:46.982Z,6.55
2018-07-01T00:05:17.492Z,6.28
2018-07-01T00:07:47.882Z,6.40
2018-07-01T00:10:19.324Z,6.80
2018-07-01T00:12:49.844Z,6.80
2018-07-01T00:15:20.729Z,7.05
2018-07-01T00:17:51.281Z,6.92
2018-07-01T00:20:21.922Z,7.03
2018-07-01T00:22:52.416Z,6.20
2018-07-01T00:25:22.892Z,7.30
2018-07-01T00:27:53.328Z,7.08
2018-07-01T00:30:24.186Z,6.92
2018-07-01T00:32:55.853Z,7.33
2018-07-01T00:35:26.309Z,7.47
2018-07-01T00:37:56.829Z,7.33
2018-07-01T00:40:28.054Z,7.70
2018-07-01T00:42:57.981Z,7.20
2018-07-01T00:49:06.042Z,7.50
2018-07-01T00:51:36.773Z,7.85
2018-07-01T00:54:07.274Z,7.62
2018-07-01T00:56:37.154Z,7.55
2018-07-01T00:59:07.150Z,8.07
2018-07-01T01:01:37.134Z,7.90
2018-07-01T01:04:07.129Z,8.17
2018-07-01T01:06:36.989Z,8.70
2018-07-01T01:09:11.404Z,8.20
2018-07-01T01:11:41.700Z,7.50
2018-07-01T01:14:12.348Z,8.40
2018-07-01T01:16:42.139Z,8.37
2018-07-01T01:19:12.563Z,8.18
2018-07-01T01:21:43.002Z,8.60
2018-07-01T01:25:09.590Z,7.97
2018-07-01T01:27:40.033Z,7.70
2018-07-01T01:30:10.373Z,7.30
2018-07-01T01:32:40.786Z,8.03
2018-07-01T01:35:11.283Z,8.08
2018-07-01T01:44:58.705Z,8.50
2018-07-01T01:47:33.767Z,9.07
2018-07-01T01:50:08.610Z,8.83
2018-07-01T01:52:47.075Z,8.70
2018-07-01T01:55:22.863Z,9.03
2018-07-01T01:58:00.689Z,9.43
2018-07-01T02:00:39.455Z,9.67
2018-07-01T02:03:13.761Z,9.77
2018-07-01T02:06:18.035Z,9.60
2018-07-01T02:08:51.273Z,9.87
2018-07-01T02:11:21.428Z,9.77
2018-07-01T02:13:55.228Z,9.50
2018-07-01T02:16:32.105Z,9.60
2018-07-01T02:19:02.561Z,10.20
2018-07-01T02:21:32.643Z,8.47
2018-07-01T02:24:05.815Z,9.70
2018-07-01T02:26:35.786Z,9.50
2018-07-01T02:29:05.694Z,9.47
2018-07-01T02:31:35.575Z,9.30
2018-07-01T02:34:05.535Z,9.70
2018-07-01T02:36:35.439Z,9.80
2018-07-01T02:39:08.288Z,9.77
2018-07-01T02:41:40.569Z,9.30
2018-07-01T02:44:10.809Z,9.03
2018-07-01T02:46:40.685Z,8.83
2018-07-01T02:49:10.580Z,9.37
2018-07-01T02:51:40.409Z,9.60
2018-07-01T02:54:10.262Z,8.83
2018-07-01T02:56:40.157Z,9.57
2018-07-01T02:59:09.950Z,9.80
2018-07-01T03:01:39.795Z,9.17
2018-07-01T03:04:09.670Z,9.03
2018-07-01T03:06:39.616Z,9.10
2018-07-01T03:09:12.823Z,8.93
2018-07-01T03:11:42.659Z,9.43
2018-07-01T03:14:12.503Z,8.73
2018-07-01T03:16:42.335Z,10.17
2018-07-01T03:19:12.305Z,10.37
2018-07-01T03:21:42.203Z,9.73
2018-07-01T03:24:12.097Z,9.80
2018-07-01T03:26:41.946Z,10.37
2018-07-01T03:29:12.135Z,10.47
2018-07-01T03:31:42.258Z,10.67
2018-07-01T03:34:12.191Z,10.30
2018-07-01T03:36:42.163Z,9.80
2018-07-01T03:39:12.029Z,10.97
2018-07-01T03:41:41.846Z,10.53
2018-07-01T03:44:11.663Z,10.40
2018-07-01T03:46:41.571Z,9.93
2018-07-01T03:49:11.459Z,9.87
2018-07-01T03:51:41.677Z,9.77
2018-07-01T03:54:11.579Z,8.77
2018-07-01T03:56:41.521Z,8.70
2018-07-01T03:59:11.425Z,8.37
2018-07-01T04:01:41.408Z,7.80
2018-07-01T04:04:11.571Z,7.70
2018-07-01T04:06:41.668Z,7.43
2018-07-01T04:09:12.989Z,7.40
2018-07-01T04:11:43.053Z,7.53
2018-07-01T04:15:09.986Z,7.20
2018-07-01T04:17:39.861Z,6.67
2018-07-01T04:20:09.747Z,6.83
2018-07-01T04:22:39.627Z,6.20
2018-07-01T04:25:09.453Z,6.00
2018-07-01T04:27:39.363Z,5.80
2018-07-01T04:30:09.637Z,6.07
2018-07-01T04:32:39.697Z,5.30
2018-07-01T04:35:09.822Z,5.00
2018-07-01T04:37:39.835Z,5.17
2018-07-01T04:40:09.850Z,5.30
2018-07-01T04:42:39.779Z,4.80
2018-07-01T04:45:10.008Z,4.40
2018-07-01T04:47:39.857Z,4.77
2018-07-01T04:50:10.005Z,4.07
2018-07-01T04:52:40.009Z,4.07
2018-07-01T04:55:09.972Z,4.00
2018-07-01T04:57:40.571Z,3.85
2018-07-01T05:00:11.444Z,3.70
2018-07-01T05:02:42.223Z,3.98
2018-07-01T05:05:12.993Z,3.58
2018-07-01T05:07:43.349Z,3.95
2018-07-01T05:10:13.943Z,3.85
2018-07-01T05:12:44.337Z,3.80
2018-07-01T05:15:14.720Z,3.85
2018-07-01T05:17:45.957Z,3.70
2018-07-01T05:20:16.356Z,4.20
2018-07-01T05:22:47.198Z,4.10
2018-07-01T05:25:17.642Z,4.00
2018-07-01T05:27:48.875Z,4.10
2018-07-01T05:30:19.290Z,4.30
2018-07-01T05:32:49.669Z,4.15
2018-07-01T05:36:11.096Z,3.87
2018-07-01T05:38:41.568Z,3.65
2018-07-01T05:41:11.732Z,2.95
2018-07-01T05:43:42.260Z,3.25
2018-07-01T05:46:12.722Z,2.87
2018-07-01T05:48:42.769Z,2.90
2018-07-01T05:51:13.730Z,2.90
2018-07-01T05:53:43.681Z,2.80
2018-07-01T05:56:13.570Z,3.30
2018-07-01T05:58:43.624Z,2.63
2018-07-01T06:01:13.646Z,2.53
2018-07-01T06:03:43.580Z,2.50
2018-07-01T06:06:13.718Z,2.87
2018-07-01T06:08:43.821Z,2.57
2018-07-01T06:11:14.768Z,2.50
2018-07-01T06:13:44.976Z,2.90
2018-07-01T06:16:15.248Z,2.77
2018-07-01T06:18:46.288Z,2.63
2018-07-01T06:21:16.608Z,2.70
2018-07-01T06:23:46.532Z,2.67
2018-07-01T06:26:16.722Z,2.60
2018-07-01T06:28:46.571Z,2.90
2018-07-01T06:31:16.045Z,2.80
2018-07-01T06:33:46.202Z,2.43
2018-07-01T06:36:16.043Z,2.57
2018-07-01T06:38:45.952Z,2.70
2018-07-01T06:41:15.963Z,2.63
2018-07-01T06:43:45.832Z,2.93
2018-07-01T06:46:17.192Z,3.00
2018-07-01T06:48:47.460Z,2.67
2018-07-01T06:51:18.032Z,2.93
2018-07-01T06:53:48.035Z,2.97
2018-07-01T06:56:18.041Z,2.70
2018-07-01T06:58:47.966Z,2.50
2018-07-01T07:01:17.860Z,2.50
2018-07-01T07:07:23.616Z,2.33
2018-07-01T07:09:53.476Z,2.67
2018-07-01T07:12:24.854Z,2.72
2018-07-01T07:14:55.530Z,2.83
2018-07-01T07:17:25.444Z,2.25
2018-07-01T07:19:56.111Z,2.67
2018-07-01T07:22:26.191Z,2.65
2018-07-01T07:24:56.601Z,2.70
2018-07-01T07:27:28.110Z,2.70
2018-07-01T07:29:58.614Z,2.72
2018-07-01T07:32:29.066Z,2.47
2018-07-01T07:34:59.773Z,2.80
2018-07-01T07:37:30.166Z,2.70
2018-07-01T07:40:01.164Z,2.85
2018-07-01T07:42:31.750Z,3.25
2018-07-01T07:45:02.251Z,2.98
2018-07-01T07:47:33.384Z,2.85
2018-07-01T07:50:03.834Z,3.10
2018-07-01T07:52:34.583Z,3.08
2018-07-01T07:55:04.994Z,3.00
2018-07-01T07:57:35.376Z,3.20
2018-07-01T08:00:06.276Z,3.00
2018-07-01T08:02:37.001Z,2.95
2018-07-01T08:05:07.608Z,2.90
2018-07-01T08:07:37.985Z,3.05
2018-07-01T08:10:08.566Z,3.50
2018-07-01T08:12:39.039Z,2.92
2018-07-01T08:15:09.592Z,2.90
2018-07-01T08:17:40.159Z,3.10
2018-07-01T08:20:10.634Z,3.00
2018-07-01T08:22:41.153Z,3.17
2018-07-01T08:25:11.634Z,3.00
2018-07-01T08:27:42.990Z,2.90
2018-07-01T08:30:13.464Z,2.77
2018-07-01T08:32:44.234Z,3.12
2018-07-01T08:35:14.760Z,3.42
2018-07-01T08:37:45.287Z,3.55
2018-07-01T08:40:16.789Z,2.70
2018-07-01T08:42:47.522Z,3.12
2018-07-01T08:45:18.078Z,3.27
2018-07-01T08:47:48.904Z,3.40
2018-07-01T08:50:19.388Z,3.20
2018-07-01T08:52:51.092Z,3.35
2018-07-01T08:55:21.579Z,3.12
2018-07-01T08:57:52.124Z,3.27
2018-07-01T09:00:22.632Z,3.05
2018-07-01T09:02:54.927Z,3.40
2018-07-01T09:05:25.962Z,3.70
2018-07-01T09:07:56.685Z,3.40
2018-07-01T09:10:28.604Z,3.50
2018-07-01T09:12:59.696Z,3.58
2018-07-01T09:15:30.198Z,3.98
2018-07-01T09:18:00.628Z,3.67
2018-07-01T09:20:31.112Z,3.80
2018-07-01T09:23:01.550Z,3.92
2018-07-01T09:25:32.014Z,3.80
2018-07-01T09:28:02.496Z,3.60
2018-07-01T09:30:32.976Z,3.52
2018-07-01T09:33:03.595Z,3.45
2018-07-01T09:35:34.015Z,3.45
2018-07-01T09:38:04.553Z,3.87
2018-07-01T09:40:35.100Z,3.90
2018-07-01T09:43:05.643Z,4.25
2018-07-01T09:45:36.105Z,4.00
2018-07-01T09:48:06.631Z,3.77
2018-07-01T09:50:37.210Z,4.10
2018-07-01T09:53:08.319Z,4.40
2018-07-01T09:55:39.703Z,4.78
2018-07-01T09:58:10.647Z,4.08
2018-07-01T10:00:41.075Z,4.28
2018-07-01T10:03:11.539Z,4.37
2018-07-01T10:05:42.100Z,4.50
2018-07-01T10:08:12.549Z,4.90
2018-07-01T10:10:43.098Z,4.40
2018-07-01T10:13:14.056Z,4.67
2018-07-01T10:15:45.223Z,4.55
2018-07-01T10:18:15.583Z,4.53
2018-07-01T10:20:45.932Z,4.12
2018-07-01T10:23:16.383Z,4.20
2018-07-01T10:25:46.817Z,4.20
2018-07-01T10:28:17.175Z,3.95
2018-07-01T10:30:47.199Z,4.20
2018-07-01T10:33:17.639Z,4.10
2018-07-01T10:35:48.079Z,4.70
2018-07-01T10:38:18.867Z,4.35
2018-07-01T10:40:49.375Z,4.40
2018-07-01T10:43:19.793Z,4.17
2018-07-01T10:45:50.248Z,4.72
2018-07-01T10:48:20.665Z,4.85
2018-07-01T10:50:51.386Z,4.28
2018-07-01T10:53:22.207Z,4.62
2018-07-01T10:55:52.691Z,4.33
2018-07-01T10:58:23.165Z,4.30
2018-07-01T11:00:53.540Z,4.37
2018-07-01T11:03:24.261Z,3.90
2018-07-01T11:05:54.640Z,3.95
2018-07-01T11:08:25.240Z,4.30
2018-07-01T11:10:56.221Z,4.22
2018-07-01T11:13:26.656Z,4.10
2018-07-01T11:15:57.319Z,4.20
2018-07-01T11:18:27.969Z,4.08
2018-07-01T11:20:58.575Z,4.60
2018-07-01T11:23:29.051Z,3.77
2018-07-01T11:26:01.306Z,4.10
2018-07-01T11:28:31.697Z,4.10
2018-07-01T11:31:02.139Z,3.85
2018-07-01T11:33:32.749Z,3.67
2018-07-01T11:36:03.165Z,3.98
2018-07-01T11:38:33.535Z,3.83
2018-07-01T11:41:04.027Z,3.47
2018-07-01T11:43:34.483Z,3.70
2018-07-01T11:46:05.081Z,3.70
2018-07-01T11:48:35.587Z,3.95
2018-07-01T11:51:06.077Z,3.70
2018-07-01T11:53:37.019Z,3.65
2018-07-01T11:56:08.631Z,4.05
2018-07-01T11:58:40.034Z,3.62
2018-07-01T12:01:10.808Z,3.70
2018-07-01T12:03:41.599Z,3.65
2018-07-01T12:06:12.115Z,3.58
2018-07-01T12:08:42.633Z,3.75
2018-07-01T12:11:13.466Z,3.85
2018-07-01T12:13:45.475Z,3.85
2018-07-01T12:16:15.932Z,3.70
2018-07-01T12:18:46.487Z,4.10
2018-07-01T12:21:16.924Z,3.92
2018-07-01T12:23:47.463Z,3.67
2018-07-01T12:26:17.818Z,3.35
2018-07-01T12:28:48.274Z,3.98
2018-07-01T12:31:19.345Z,3.60
2018-07-01T12:33:50.197Z,4.17
2018-07-01T12:36:20.955Z,3.50
2018-07-01T12:38:51.721Z,3.90
2018-07-01T12:41:23.147Z,3.83
2018-07-01T12:43:55.907Z,4.15
2018-07-01T12:46:26.669Z,3.80
2018-07-01T12:48:57.291Z,3.47
2018-07-01T12:51:27.785Z,4.00
2018-07-01T12:57:34.148Z,3.77
2018-07-01T13:00:05.632Z,3.80
2018-07-01T13:02:36.137Z,3.70
2018-07-01T13:05:08.675Z,3.92
2018-07-01T13:07:40.195Z,4.08
2018-07-01T13:10:10.642Z,3.95
2018-07-01T13:12:41.149Z,3.80
2018-07-01T13:15:11.690Z,3.70
2018-07-01T13:17:42.226Z,3.98
2018-07-01T13:20:13.450Z,3.90
2018-07-01T13:22:44.950Z,3.67
2018-07-01T13:25:16.219Z,3.87
2018-07-01T13:27:47.723Z,3.70
2018-07-01T13:30:18.378Z,3.80
2018-07-01T13:32:49.508Z,3.75
2018-07-01T13:35:19.927Z,3.98
2018-07-01T13:37:52.202Z,4.17
2018-07-01T13:40:25.046Z,4.00
2018-07-01T13:42:55.930Z,3.98
2018-07-01T13:45:26.935Z,3.90
2018-07-01T13:47:57.831Z,3.67
2018-07-01T13:50:30.031Z,3.90
2018-07-01T13:53:05.052Z,3.67
2018-07-01T13:55:35.521Z,4.40
2018-07-01T13:58:07.143Z,3.80
2018-07-01T14:00:39.151Z,3.70
2018-07-01T14:03:11.455Z,3.77
2018-07-01T14:05:49.560Z,3.80
2018-07-01T14:08:20.111Z,3.58
2018-07-01T14:10:50.615Z,3.70
2018-07-01T14:13:24.084Z,3.50
2018-07-01T14:15:55.449Z,4.03
2018-07-01T14:18:25.958Z,3.70
2018-07-01T14:20:56.744Z,3.55
2018-07-01T14:23:27.274Z,3.70
2018-07-01T14:25:57.958Z,4.00
2018-07-01T14:28:29.424Z,4.45
2018-07-01T14:31:01.397Z,3.47
2018-07-01T14:33:31.831Z,3.60
2018-07-01T14:36:02.732Z,3.75
2018-07-01T14:38:33.272Z,3.35
2018-07-01T14:41:03.670Z,3.92
2018-07-01T14:43:34.695Z,3.62
2018-07-01T14:46:05.416Z,3.90
2018-07-01T14:48:36.123Z,3.83
2018-07-01T14:51:07.136Z,3.50
2018-07-01T14:53:38.844Z,3.77
2018-07-01T14:59:44.984Z,3.70
2018-07-01T15:02:18.144Z,3.67
2018-07-01T15:04:49.566Z,3.42
2018-07-01T15:07:20.109Z,3.90
2018-07-01T15:09:50.968Z,3.27
2018-07-01T15:12:21.430Z,3.40
2018-07-01T15:14:51.818Z,3.50
2018-07-01T15:17:22.894Z,3.87
2018-07-01T15:19:53.346Z,3.40
2018-07-01T15:22:23.800Z,3.17
2018-07-01T15:24:54.554Z,3.30
2018-07-01T15:27:25.032Z,3.55
2018-07-01T15:29:55.600Z,3.40
2018-07-01T15:32:26.236Z,3.42
2018-07-01T15:34:57.312Z,3.37
2018-07-01T15:37:27.746Z,3.15
2018-07-01T15:39:58.542Z,3.10
2018-07-01T15:42:29.161Z,3.87
2018-07-01T15:44:59.832Z,3.50
2018-07-01T15:47:30.176Z,3.12
2018-07-01T15:50:00.858Z,3.10
2018-07-01T15:52:31.897Z,2.80
2018-07-01T15:55:02.375Z,2.70
2018-07-01T15:57:33.166Z,3.00
2018-07-01T16:00:05.126Z,3.52
2018-07-01T16:02:35.536Z,3.10
2018-07-01T16:05:06.696Z,3.02
2018-07-01T16:07:37.336Z,2.72
2018-07-01T16:10:07.807Z,3.10
2018-07-01T16:12:38.204Z,2.80
2018-07-01T16:15:08.786Z,3.00
2018-07-01T16:17:38.774Z,2.92
2018-07-01T16:20:09.352Z,2.83
2018-07-01T16:22:39.770Z,2.98
2018-07-01T16:25:15.694Z,2.85
2018-07-01T16:27:51.184Z,2.90
2018-07-01T16:30:21.520Z,2.62
2018-07-01T16:32:53.003Z,2.83
2018-07-01T16:35:23.586Z,3.00
2018-07-01T16:37:54.742Z,3.02
2018-07-01T16:40:25.157Z,2.60
2018-07-01T16:42:58.792Z,3.15
2018-07-01T16:45:29.178Z,2.92
2018-07-01T16:47:59.637Z,2.90
2018-07-01T16:50:30.370Z,2.75
2018-07-01T16:53:01.112Z,2.80
2018-07-01T16:55:32.724Z,2.62
2018-07-01T16:58:03.132Z,2.45
2018-07-01T17:00:34.604Z,2.70
2018-07-01T17:03:04.957Z,2.77
2018-07-01T17:05:35.415Z,3.22
2018-07-01T17:08:06.377Z,2.92
2018-07-01T17:10:36.825Z,2.42
2018-07-01T17:13:07.275Z,2.47
2018-07-01T17:15:37.877Z,2.70
2018-07-01T17:18:08.366Z,2.75
2018-07-01T17:20:39.383Z,2.90
2018-07-01T17:23:10.055Z,2.60
2018-07-01T17:25:45.687Z,2.45
2018-07-01T17:28:16.425Z,2.52
2018-07-01T17:30:46.867Z,3.17
2018-07-01T17:33:23.298Z,2.45
2018-07-01T17:35:54.481Z,2.45
2018-07-01T17:38:24.993Z,2.60
2018-07-01T17:40:55.871Z,2.87
2018-07-01T17:43:27.915Z,2.80
2018-07-01T17:45:59.933Z,2.60
2018-07-01T17:48:31.352Z,2.58
2018-07-01T17:51:02.160Z,2.67
2018-07-01T17:53:57.583Z,2.50
2018-07-01T17:56:28.163Z,2.60
2018-07-01T17:58:58.558Z,2.90
2018-07-01T18:01:28.970Z,2.75
2018-07-01T18:03:59.525Z,2.75
2018-07-01T18:06:30.743Z,3.10
2018-07-01T18:09:02.009Z,2.95
2018-07-01T18:11:32.426Z,2.52
2018-07-01T18:14:02.775Z,2.60
2018-07-01T18:16:33.197Z,2.45
2018-07-01T18:19:03.835Z,2.65
2018-07-01T18:21:41.213Z,2.77
2018-07-01T18:24:35.145Z,2.85
2018-07-01T18:26:36.105Z,2.50
2018-07-01T18:29:15.297Z,2.30
2018-07-01T18:31:37.599Z,2.52
2018-07-01T18:34:08.185Z,2.80
2018-07-01T18:36:38.922Z,2.45
2018-07-01T18:39:10.183Z,2.30
2018-07-01T18:41:40.767Z,2.75
2018-07-01T18:44:12.937Z,2.40
2018-07-01T18:46:43.456Z,2.62
2018-07-01T18:49:14.195Z,2.33
2018-07-01T18:51:46.355Z,2.33
2018-07-01T18:54:18.405Z,2.47
2018-07-01T18:56:54.553Z,2.45
2018-07-01T18:59:25.701Z,2.25
2018-07-01T19:01:56.723Z,2.22
2018-07-01T19:04:27.075Z,2.30
2018-07-01T19:06:57.543Z,2.60
2018-07-01T19:09:28.071Z,2.30
2018-07-01T19:11:58.781Z,2.35
2018-07-01T19:14:29.443Z,2.27
2018-07-01T19:17:00.017Z,2.60
2018-07-01T19:19:31.202Z,2.40
2018-07-01T19:22:02.517Z,2.12
2018-07-01T19:24:32.944Z,2.30
2018-07-01T19:27:05.328Z,2.58
2018-07-01T19:29:36.544Z,2.10
2018-07-01T19:32:07.404Z,2.33
2018-07-01T19:34:38.129Z,2.30
2018-07-01T19:37:08.673Z,2.40
2018-07-01T19:39:38.701Z,2.42
2018-07-01T19:42:09.309Z,2.42
2018-07-01T19:44:40.694Z,2.25
2018-07-01T19:47:11.515Z,2.20
2018-07-01T19:49:41.837Z,2.40
2018-07-01T19:52:12.259Z,2.08
2018-07-01T19:54:42.702Z,2.12
2018-07-01T19:57:13.226Z,2.30
2018-07-01T19:59:43.659Z,2.08
2018-07-01T20:02:14.505Z,2.02
2018-07-01T20:04:45.096Z,2.10
2018-07-01T20:07:16.397Z,2.42
2018-07-01T20:09:46.752Z,2.08
2018-07-01T20:12:17.081Z,2.20
2018-07-01T20:14:47.618Z,2.10
2018-07-01T20:17:18.073Z,2.17
2018-07-01T20:19:48.569Z,2.08
2018-07-01T20:22:20.828Z,2.40
2018-07-01T20:24:51.269Z,2.20
2018-07-01T20:27:21.806Z,2.17
2018-07-01T20:29:52.264Z,2.10
2018-07-01T20:32:26.189Z,2.08
2018-07-01T20:34:56.600Z,2.17
2018-07-01T20:37:27.044Z,2.20
2018-07-01T20:39:57.425Z,2.90
2018-07-01T20:42:27.803Z,2.22
2018-07-01T20:44:58.273Z,2.65
2018-07-01T20:47:29.266Z,2.30
2018-07-01T20:50:01.014Z,2.10
2018-07-01T20:52:31.390Z,2.27
2018-07-01T20:55:02.078Z,2.50
2018-07-01T20:57:32.562Z,2.60
2018-07-01T21:00:10.493Z,2.62
2018-07-01T21:02:41.422Z,2.40
2018-07-01T21:05:12.411Z,2.05
2018-07-01T21:07:43.504Z,2.58
2018-07-01T21:10:13.861Z,2.10
2018-07-01T21:12:45.072Z,2.40
2018-07-01T21:15:15.933Z,1.85
2018-07-01T21:17:46.511Z,2.17
2018-07-01T21:20:17.230Z,2.20
2018-07-01T21:22:47.858Z,2.10
2018-07-01T21:25:18.430Z,2.45
2018-07-01T21:27:49.090Z,2.00
2018-07-01T21:30:19.701Z,2.08
2018-07-01T21:32:50.404Z,2.10
2018-07-01T21:35:21.019Z,1.95
2018-07-01T21:37:51.629Z,2.20
2018-07-01T21:40:21.952Z,2.20
2018-07-01T21:42:52.750Z,2.10
2018-07-01T21:45:23.145Z,2.10
2018-07-01T21:47:53.122Z,2.30
2018-07-01T21:50:23.288Z,2.03
2018-07-01T21:52:53.348Z,2.23
2018-07-01T21:55:23.399Z,2.20
2018-07-01T21:57:54.151Z,2.20
2018-07-01T22:00:29.286Z,2.13
2018-07-01T22:02:59.505Z,2.43
2018-07-01T22:05:29.440Z,2.07
2018-07-01T22:07:59.570Z,2.03
2018-07-01T22:10:46.238Z,1.97
2018-07-01T22:14:38.388Z,2.50
2018-07-01T22:17:12.131Z,2.40
2018-07-01T22:19:42.184Z,2.37
2018-07-01T22:22:12.311Z,2.30
2018-07-01T22:24:42.471Z,1.93
2018-07-01T22:27:12.593Z,2.07
2018-07-01T22:29:42.807Z,2.20
2018-07-01T22:32:12.986Z,1.60
2018-07-01T22:34:43.078Z,2.03
2018-07-01T22:37:13.415Z,2.50
2018-07-01T22:39:43.522Z,2.50
2018-07-01T22:42:14.601Z,1.93
2018-07-01T22:44:44.994Z,1.97
2018-07-01T22:47:16.997Z,1.90
2018-07-01T22:49:46.994Z,2.00
2018-07-01T22:52:16.968Z,1.90
2018-07-01T22:54:46.998Z,2.10
2018-07-01T22:57:17.062Z,2.00
2018-07-01T22:59:47.838Z,1.80
2018-07-01T23:03:02.038Z,1.77
2018-07-01T23:05:32.184Z,1.70
2018-07-01T23:08:02.275Z,1.80
2018-07-01T23:10:32.815Z,1.70
2018-07-01T23:13:03.038Z,1.63
2018-07-01T23:15:33.098Z,1.73
2018-07-01T23:18:03.212Z,2.30
2018-07-01T23:20:33.202Z,2.07
2018-07-01T23:23:03.208Z,1.90
2018-07-01T23:25:33.228Z,2.03
2018-07-01T23:28:03.258Z,1.80
2018-07-01T23:30:33.252Z,1.83
2018-07-01T23:33:03.258Z,1.90
2018-07-01T23:35:33.279Z,2.00
2018-07-01T23:38:03.378Z,1.70
2018-07-01T23:40:33.423Z,1.77
2018-07-01T23:43:03.434Z,1.90
2018-07-01T23:45:33.468Z,1.53
2018-07-01T23:48:03.491Z,2.00
2018-07-01T23:50:33.590Z,1.97
2018-07-01T23:53:03.642Z,1.87
2018-07-01T23:55:33.787Z,1.90
2018-07-01T23:58:04.009Z,1.77
